Time;durP1;ratioP1;P1;durP2;ratioP2;P2;SDS_P1;SDS_P2;PMS_P1;PMS_P2;Temp;Humidity;BMP_temperature;BMP_pressure;BME280_temperature;BME280_humidity;BME280_pressure;Samples;Min_cycle;Max_cycle;Signal;HPM_P1;HPM_P2
2021/08/26 00:00:46;;;;;;;5.80;5.20;;;17.20;62.70;;;;;;5087271;28;20116;-81
2021/08/26 00:05:56;;;;;;;6.22;5.30;;;17.20;62.80;;;;;;5086905;28;20164;-81
2021/08/26 00:08:23;;;;;;;6.35;5.75;;;17.10;63.10;;;;;;5089321;28;20035;-81
2021/08/26 00:10:52;;;;;;;5.90;5.40;;;17.20;62.80;;;;;;5106312;28;20040;-81
2021/08/26 00:13:22;;;;;;;5.93;5.25;;;17.10;62.70;;;;;;5089197;28;20452;-81
2021/08/26 00:15:48;;;;;;;5.47;4.97;;;17.10;62.80;;;;;;5107667;28;20543;-82
2021/08/26 00:18:15;;;;;;;6.20;5.53;;;17.10;62.80;;;;;;5102736;28;20478;-81
2021/08/26 00:20:42;;;;;;;6.22;5.65;;;17.10;62.80;;;;;;5085650;28;20036;-81
2021/08/26 00:23:08;;;;;;;6.60;6.00;;;17.10;62.90;;;;;;5089888;28;20118;-80
2021/08/26 00:25:36;;;;;;;6.55;5.95;;;17.10;62.90;;;;;;5106852;28;20067;-81
2021/08/26 00:28:02;;;;;;;8.73;6.28;;;17.10;63.00;;;;;;5088684;28;20517;-81
2021/08/26 00:30:28;;;;;;;6.93;5.93;;;17.10;63.00;;;;;;5105643;28;20666;-80
2021/08/26 00:32:54;;;;;;;6.20;5.68;;;17.00;62.90;;;;;;5090823;28;20020;-81
2021/08/26 00:35:20;;;;;;;5.88;5.38;;;17.00;63.00;;;;;;5106709;28;20092;-82
2021/08/26 00:37:46;;;;;;;6.05;5.45;;;17.00;63.00;;;;;;5105887;28;20020;-81
2021/08/26 00:40:12;;;;;;;7.22;6.15;;;17.00;63.10;;;;;;5086353;28;20028;-82
2021/08/26 00:42:38;;;;;;;6.55;5.95;;;17.00;63.10;;;;;;5068289;28;20080;-80
2021/08/26 00:45:05;;;;;;;7.63;5.80;;;16.90;63.00;;;;;;5105759;28;20032;-80
2021/08/26 00:47:32;;;;;;;8.43;6.57;;;16.90;63.00;;;;;;5106889;28;20269;-80
2021/08/26 00:49:58;;;;;;;6.53;5.93;;;16.90;63.10;;;;;;5087758;28;20036;-80
2021/08/26 00:52:25;;;;;;;6.25;5.65;;;16.90;63.10;;;;;;5067995;28;20024;-81
2021/08/26 00:54:52;;;;;;;6.85;6.13;;;16.90;63.20;;;;;;5085758;28;20032;-82
2021/08/26 00:57:20;;;;;;;6.55;5.95;;;16.90;63.20;;;;;;5085471;28;20153;-82
2021/08/26 00:59:46;;;;;;;6.53;5.93;;;16.90;63.30;;;;;;5085255;28;20467;-80
2021/08/26 01:02:36;;;;;;;5.68;5.18;;;16.90;63.30;;;;;;5084916;28;20035;-81
2021/08/26 01:05:20;;;;;;;6.25;5.63;;;16.80;63.20;;;;;;5084527;28;20115;-80
2021/08/26 01:07:58;;;;;;;6.50;5.90;;;16.80;63.20;;;;;;5068160;28;20024;-80
2021/08/26 01:10:24;;;;;;;6.60;6.00;;;16.80;63.20;;;;;;5064483;28;20506;-80
2021/08/26 01:12:55;;;;;;;6.82;6.22;;;16.80;63.30;;;;;;5066014;28;20033;-80
2021/08/26 01:15:23;;;;;;;7.05;6.20;;;16.80;63.30;;;;;;5068036;28;20161;-80
2021/08/26 01:17:49;;;;;;;7.70;6.22;;;16.80;63.30;;;;;;5086094;28;20044;-80
2021/08/26 01:20:15;;;;;;;7.07;6.38;;;16.80;63.40;;;;;;5088949;28;20101;-81
2021/08/26 01:22:41;;;;;;;7.80;6.70;;;16.80;63.40;;;;;;5089245;28;20024;-80
2021/08/26 01:25:11;;;;;;;7.28;6.68;;;16.80;63.50;;;;;;5108779;28;20080;-79
2021/08/26 01:27:37;;;;;;;8.30;5.78;;;16.70;63.40;;;;;;5109432;28;20028;-81
2021/08/26 01:30:05;;;;;;;7.10;6.40;;;16.80;63.60;;;;;;5093023;28;20031;-81
2021/08/26 01:32:31;;;;;;;6.63;6.05;;;16.70;63.50;;;;;;5079430;28;20032;-79
2021/08/26 01:34:58;;;;;;;6.18;5.57;;;16.70;63.60;;;;;;5087188;28;20028;-81
2021/08/26 01:37:25;;;;;;;7.97;7.10;;;16.70;63.60;;;;;;5069809;28;20110;-81
2021/08/26 01:39:52;;;;;;;6.53;5.95;;;16.70;63.60;;;;;;5101772;28;20486;-79
2021/08/26 01:42:25;;;;;;;7.68;6.95;;;16.70;63.70;;;;;;5111322;28;20065;-80
2021/08/26 01:44:55;;;;;;;6.90;6.35;;;16.70;63.80;;;;;;5110979;28;20069;-80
2021/08/26 01:47:22;;;;;;;7.13;6.43;;;16.70;63.80;;;;;;5085907;28;20140;-82
2021/08/26 01:49:50;;;;;;;6.63;6.05;;;16.70;63.80;;;;;;5076493;28;20028;-83
2021/08/26 01:52:19;;;;;;;7.70;6.82;;;16.70;63.90;;;;;;5074112;28;20060;-83
2021/08/26 01:54:57;;;;;;;7.32;6.60;;;16.70;63.90;;;;;;5071955;28;20025;-81
2021/08/26 01:57:27;;;;;;;6.95;6.30;;;16.70;64.10;;;;;;5074263;28;20032;-82
2021/08/26 01:59:54;;;;;;;7.50;6.80;;;16.60;63.80;;;;;;5073021;28;20032;-80
2021/08/26 02:02:20;;;;;;;7.55;6.85;;;16.70;64.00;;;;;;5087042;28;20035;-81
2021/08/26 02:04:46;;;;;;;9.70;6.68;;;16.70;64.00;;;;;;5094185;28;20028;-80
2021/08/26 02:07:13;;;;;;;8.50;7.18;;;16.70;64.10;;;;;;5092612;28;20111;-81
2021/08/26 02:09:39;;;;;;;7.65;6.90;;;16.70;64.10;;;;;;5094396;28;20059;-81
2021/08/26 02:12:05;;;;;;;8.07;7.28;;;16.70;64.10;;;;;;5092778;28;20040;-82
2021/08/26 02:14:31;;;;;;;7.57;6.90;;;16.70;64.20;;;;;;5091644;28;20024;-81
2021/08/26 02:16:58;;;;;;;7.60;6.90;;;16.70;64.20;;;;;;5092661;28;20028;-81
2021/08/26 02:19:24;;;;;;;7.38;6.18;;;16.80;64.30;;;;;;5092900;28;20036;-82
2021/08/26 02:21:50;;;;;;;7.57;6.88;;;16.80;64.40;;;;;;5092374;28;20040;-81
2021/08/26 02:24:16;;;;;;;6.57;5.97;;;16.70;64.20;;;;;;5092395;28;20094;-83
2021/08/26 02:26:42;;;;;;;7.15;6.45;;;16.70;64.20;;;;;;5091315;28;20050;-84
2021/08/26 02:29:08;;;;;;;9.63;7.03;;;16.80;64.40;;;;;;5092293;28;20028;-82
2021/08/26 02:31:34;;;;;;;8.20;6.93;;;16.80;64.40;;;;;;5092345;28;20028;-82
2021/08/26 02:34:00;;;;;;;7.82;7.03;;;16.80;65.00;;;;;;5074530;28;20032;-82
2021/08/26 02:36:26;;;;;;;7.70;7.00;;;16.80;64.40;;;;;;5092210;28;20028;-82
2021/08/26 02:38:52;;;;;;;7.03;6.32;;;16.80;64.40;;;;;;5091322;28;20028;-82
2021/08/26 02:41:18;;;;;;;7.32;6.63;;;16.80;64.40;;;;;;5090821;28;20047;-81
2021/08/26 02:43:44;;;;;;;7.85;6.65;;;16.80;65.00;;;;;;5092028;28;20024;-82
2021/08/26 02:46:10;;;;;;;10.02;7.10;;;16.80;64.50;;;;;;5092239;28;20028;-83
2021/08/26 02:48:36;;;;;;;7.90;7.07;;;16.80;64.50;;;;;;5091132;28;20082;-83
2021/08/26 02:51:02;;;;;;;8.20;6.85;;;16.80;64.50;;;;;;5090916;28;20122;-82
2021/08/26 02:53:28;;;;;;;7.43;6.72;;;16.80;64.50;;;;;;5073931;28;20115;-83
2021/08/26 02:55:57;;;;;;;8.27;7.22;;;16.90;64.70;;;;;;5091196;28;20546;-82
2021/08/26 02:58:24;;;;;;;7.35;6.65;;;16.90;64.70;;;;;;5092051;28;20098;-82
2021/08/26 03:00:50;;;;;;;7.95;6.93;;;16.90;64.70;;;;;;5091252;28;20047;-82
2021/08/26 03:03:16;;;;;;;7.35;6.75;;;16.90;64.70;;;;;;5090584;28;20062;-82
2021/08/26 03:05:42;;;;;;;9.07;6.03;;;16.90;64.70;;;;;;5090441;28;20344;-81
2021/08/26 03:08:08;;;;;;;7.72;7.05;;;16.90;64.70;;;;;;5091901;28;20026;-82
2021/08/26 03:10:34;;;;;;;7.67;6.97;;;16.90;64.70;;;;;;5047225;28;1227648;-82
2021/08/26 03:13:00;;;;;;;9.13;7.43;;;16.90;64.70;;;;;;5092954;28;20031;-82
2021/08/26 03:15:26;;;;;;;7.75;7.07;;;16.90;64.70;;;;;;5075005;28;20032;-82
2021/08/26 03:17:52;;;;;;;7.53;6.82;;;16.90;64.70;;;;;;5091211;28;20020;-81
2021/08/26 03:20:20;;;;;;;7.10;6.40;;;16.90;64.70;;;;;;5091575;28;20036;-81
2021/08/26 03:22:49;;;;;;;7.47;5.97;;;16.90;64.70;;;;;;5092761;28;20058;-81
2021/08/26 03:25:16;;;;;;;7.85;7.05;;;16.90;64.70;;;;;;5092487;28;20101;-82
2021/08/26 03:27:41;;;;;;;7.13;6.43;;;16.90;64.70;;;;;;5091066;28;20097;-81
2021/08/26 03:30:08;;;;;;;6.55;5.95;;;16.90;64.70;;;;;;5092390;28;20036;-81
2021/08/26 03:32:35;;;;;;;7.72;6.85;;;16.90;64.80;;;;;;5091104;28;20219;-82
2021/08/26 03:35:01;;;;;;;7.15;6.45;;;16.90;64.80;;;;;;5092488;28;20119;-82
2021/08/26 03:37:27;;;;;;;7.13;6.45;;;16.90;64.80;;;;;;5092417;28;20531;-83
2021/08/26 03:39:53;;;;;;;6.95;6.25;;;16.90;64.80;;;;;;5092058;28;20031;-83
2021/08/26 03:42:19;;;;;;;7.68;6.75;;;16.90;64.80;;;;;;5074023;28;20367;-84
2021/08/26 03:44:44;;;;;;;7.15;6.30;;;16.90;64.90;;;;;;5091361;28;20062;-82
2021/08/26 03:47:11;;;;;;;9.70;7.20;;;16.90;64.90;;;;;;5090807;28;20448;-82
2021/08/26 03:49:37;;;;;;;9.18;6.72;;;16.90;64.90;;;;;;5092328;28;20078;-81
2021/08/26 03:52:04;;;;;;;7.45;6.65;;;16.90;64.80;;;;;;5074117;28;20028;-82
2021/08/26 03:54:29;;;;;;;7.93;7.13;;;16.90;64.90;;;;;;5090040;28;20032;-81
2021/08/26 03:56:55;;;;;;;7.10;6.28;;;16.90;64.90;;;;;;5090566;28;20050;-80
2021/08/26 03:59:21;;;;;;;7.15;6.45;;;16.90;64.90;;;;;;5091958;28;20028;-82
2021/08/26 04:01:48;;;;;;;7.88;7.07;;;16.90;64.90;;;;;;5090460;28;20047;-80
2021/08/26 04:04:14;;;;;;;7.72;7.03;;;16.90;64.90;;;;;;5092051;28;20035;-81
2021/08/26 04:06:40;;;;;;;7.60;6.75;;;16.80;64.80;;;;;;5090625;28;20115;-81
2021/08/26 04:09:06;;;;;;;7.80;7.10;;;16.80;64.80;;;;;;5073986;28;20036;-80
2021/08/26 04:11:32;;;;;;;9.50;7.15;;;16.80;64.90;;;;;;5091811;28;20048;-80
2021/08/26 04:13:58;;;;;;;7.68;6.97;;;16.80;64.90;;;;;;5092028;28;20035;-81
2021/08/26 04:16:24;;;;;;;7.68;6.90;;;16.80;64.90;;;;;;5090283;28;20028;-81
2021/08/26 04:18:50;;;;;;;7.82;7.13;;;16.80;65.00;;;;;;5091862;28;20031;-81
2021/08/26 04:21:16;;;;;;;8.65;7.85;;;16.80;65.00;;;;;;5090237;28;20105;-81
2021/08/26 04:23:42;;;;;;;7.15;6.55;;;16.80;65.10;;;;;;5091294;28;20097;-82
2021/08/26 04:26:09;;;;;;;8.85;7.95;;;16.70;64.90;;;;;;5090264;28;20394;-82
2021/08/26 04:28:34;;;;;;;8.80;7.95;;;16.70;65.00;;;;;;5090564;28;20463;-82
2021/08/26 04:31:00;;;;;;;8.18;6.95;;;16.70;65.00;;;;;;5090395;28;20071;-81
2021/08/26 04:33:26;;;;;;;8.50;7.40;;;16.70;65.00;;;;;;5091389;28;20024;-83
2021/08/26 04:35:52;;;;;;;8.13;7.32;;;16.70;65.10;;;;;;5090243;28;20036;-81
2021/08/26 04:38:18;;;;;;;8.85;7.03;;;16.70;65.10;;;;;;5091422;28;20028;-81
2021/08/26 04:40:44;;;;;;;9.15;8.23;;;16.60;65.00;;;;;;5091358;28;20206;-80
2021/08/26 04:43:10;;;;;;;9.13;8.10;;;16.60;65.00;;;;;;5090200;28;20060;-81
2021/08/26 04:45:36;;;;;;;8.07;7.28;;;16.60;65.00;;;;;;5089845;28;20432;-81
2021/08/26 04:48:02;;;;;;;7.85;7.10;;;16.60;65.10;;;;;;5084437;28;20120;-81
2021/08/26 04:50:28;;;;;;;8.50;7.57;;;16.60;65.10;;;;;;5076529;28;20059;-81
2021/08/26 04:52:54;;;;;;;8.65;7.75;;;16.60;65.10;;;;;;5067491;28;20056;-82
2021/08/26 04:55:20;;;;;;;8.68;7.60;;;16.60;65.20;;;;;;5076721;28;20029;-80
2021/08/26 04:57:46;;;;;;;8.40;7.60;;;16.60;65.20;;;;;;5074170;28;20020;-82
2021/08/26 05:00:12;;;;;;;7.97;7.18;;;16.60;65.20;;;;;;5087905;28;20035;-81
2021/08/26 05:02:38;;;;;;;8.38;7.57;;;16.60;65.20;;;;;;5085318;28;20036;-80
2021/08/26 05:05:06;;;;;;;8.90;8.00;;;16.60;65.20;;;;;;5078029;28;20031;-82
2021/08/26 05:07:32;;;;;;;8.25;7.45;;;16.60;65.30;;;;;;5073817;28;20384;-82
2021/08/26 05:09:58;;;;;;;10.27;8.15;;;16.60;65.30;;;;;;5105919;28;20194;-82
2021/08/26 05:12:24;;;;;;;7.65;6.85;;;16.60;65.30;;;;;;5088744;28;20166;-82
2021/08/26 05:14:50;;;;;;;10.23;7.95;;;16.60;65.20;;;;;;5080672;28;20025;-81
2021/08/26 05:17:16;;;;;;;8.50;7.70;;;16.70;65.50;;;;;;5074632;28;20031;-81
2021/08/26 05:19:42;;;;;;;8.75;7.10;;;16.70;65.50;;;;;;5079420;28;20024;-81
2021/08/26 05:22:08;;;;;;;7.22;6.55;;;16.70;65.40;;;;;;5074920;28;20039;-81
2021/08/26 05:24:34;;;;;;;8.07;7.03;;;16.70;65.50;;;;;;5104753;28;20494;-82
2021/08/26 05:27:00;;;;;;;7.85;7.13;;;16.70;65.50;;;;;;5079891;28;20035;-82
2021/08/26 05:29:25;;;;;;;8.43;7.63;;;16.70;65.50;;;;;;5075084;28;20028;-86
2021/08/26 05:31:51;;;;;;;8.73;7.82;;;16.70;65.50;;;;;;5081679;28;20043;-82
2021/08/26 05:34:18;;;;;;;8.13;7.35;;;16.70;65.50;;;;;;5064610;28;20185;-85
2021/08/26 05:36:43;;;;;;;8.10;7.28;;;16.70;65.50;;;;;;5076118;28;20576;-83
2021/08/26 05:39:09;;;;;;;8.63;7.82;;;16.80;65.70;;;;;;5097932;28;20027;-85
2021/08/26 05:41:35;;;;;;;9.60;8.70;;;16.70;65.50;;;;;;5106628;28;20401;-83
2021/08/26 05:44:01;;;;;;;14.80;9.80;;;16.70;65.60;;;;;;5105931;28;20031;-80
2021/08/26 05:46:27;;;;;;;14.63;10.68;;;16.70;65.90;;;;;;5106766;28;20043;-85
2021/08/26 05:48:53;;;;;;;12.52;10.40;;;16.70;66.20;;;;;;5093891;28;20028;-79
2021/08/26 05:51:20;;;;;;;13.93;11.57;;;16.80;66.70;;;;;;5082739;28;20189;-86
2021/08/26 05:53:46;;;;;;;13.65;10.00;;;16.80;67.10;;;;;;5098254;28;20484;-79
2021/08/26 05:56:12;;;;;;;12.35;9.50;;;16.90;67.40;;;;;;5106212;28;20114;-79
2021/08/26 05:58:37;;;;;;;12.15;10.90;;;16.90;67.60;;;;;;5090217;28;20029;-80
2021/08/26 06:01:03;;;;;;;12.93;11.73;;;16.90;67.80;;;;;;5073119;28;20409;-77
2021/08/26 06:03:29;;;;;;;13.50;10.77;;;16.90;68.00;;;;;;5081006;28;20123;-81
2021/08/26 06:05:55;;;;;;;15.45;11.05;;;16.90;68.20;;;;;;5077549;28;20031;-80
2021/08/26 06:08:27;;;;;;;13.85;10.88;;;16.90;68.40;;;;;;5093550;28;20058;-80
2021/08/26 06:10:53;;;;;;;14.20;11.57;;;16.90;68.60;;;;;;5108877;28;20044;-79
2021/08/26 06:13:19;;;;;;;14.60;11.32;;;17.00;68.90;;;;;;5107785;28;20028;-79
2021/08/26 06:15:45;;;;;;;13.52;12.07;;;17.00;69.00;;;;;;5108395;28;20032;-81
2021/08/26 06:18:11;;;;;;;14.30;12.50;;;17.00;69.20;;;;;;5109609;28;20069;-79
2021/08/26 06:20:39;;;;;;;14.63;12.02;;;17.00;69.20;;;;;;5099517;28;20131;-80
2021/08/26 06:23:05;;;;;;;12.88;11.50;;;17.00;70.00;;;;;;5090799;28;20035;-80
2021/08/26 06:25:31;;;;;;;16.15;11.60;;;17.00;69.60;;;;;;5091757;28;20062;-78
2021/08/26 06:27:59;;;;;;;13.88;11.68;;;17.00;69.60;;;;;;5069841;28;20611;-78
2021/08/26 06:30:26;;;;;;;13.50;12.00;;;17.00;69.70;;;;;;5085737;28;20439;-77
2021/08/26 06:32:53;;;;;;;13.85;12.43;;;17.10;69.90;;;;;;5086794;28;20398;-77
2021/08/26 06:35:19;;;;;;;14.27;12.75;;;17.10;70.00;;;;;;5079573;28;20413;-79
2021/08/26 06:37:45;;;;;;;16.77;14.35;;;17.10;70.00;;;;;;5086458;28;20020;-78
2021/08/26 06:40:12;;;;;;;15.23;13.73;;;17.10;70.10;;;;;;5086518;28;20032;-78
2021/08/26 06:42:38;;;;;;;14.10;12.70;;;17.10;70.20;;;;;;5089812;28;20425;-77
2021/08/26 06:45:05;;;;;;;16.33;14.63;;;17.20;70.50;;;;;;5106811;28;20020;-78
2021/08/26 06:47:31;;;;;;;19.02;14.73;;;17.20;70.50;;;;;;5106404;28;20130;-78
2021/08/26 06:49:57;;;;;;;15.75;14.02;;;17.20;70.60;;;;;;5106345;28;20111;-78
2021/08/26 06:52:23;;;;;;;17.65;15.75;;;17.20;70.70;;;;;;5105733;28;20024;-77
2021/08/26 06:54:49;;;;;;;19.52;16.33;;;17.20;70.70;;;;;;5086968;28;20028;-77
2021/08/26 06:57:15;;;;;;;22.95;17.13;;;17.30;70.90;;;;;;5069331;28;20051;-77
2021/08/26 06:59:41;;;;;;;25.52;22.35;;;17.30;70.90;;;;;;5087773;28;20035;-76
2021/08/26 07:02:07;;;;;;;27.33;23.90;;;17.30;70.90;;;;;;5085928;28;20057;-77
2021/08/26 07:04:33;;;;;;;25.77;23.05;;;17.40;71.00;;;;;;5085891;28;20028;-77
2021/08/26 07:06:59;;;;;;;30.25;25.30;;;17.50;71.10;;;;;;5086394;28;20108;-77
2021/08/26 07:09:25;;;;;;;30.40;25.45;;;17.50;71.10;;;;;;5104878;28;20069;-77
2021/08/26 07:11:51;;;;;;;30.35;26.75;;;17.50;71.00;;;;;;5106909;28;20048;-78
2021/08/26 07:14:17;;;;;;;31.38;27.50;;;17.60;71.10;;;;;;5089588;28;20120;-79
2021/08/26 07:16:44;;;;;;;31.52;25.85;;;17.60;71.00;;;;;;5087192;28;20558;-79
2021/08/26 07:19:10;;;;;;;31.05;26.40;;;17.60;71.00;;;;;;5087626;28;20074;-78
2021/08/26 07:21:37;;;;;;;30.27;25.73;;;17.70;71.10;;;;;;5087538;28;20376;-79
2021/08/26 07:24:03;;;;;;;30.63;27.25;;;17.70;71.10;;;;;;5087177;28;20305;-79
2021/08/26 07:26:29;;;;;;;30.20;27.13;;;17.70;71.10;;;;;;5087562;28;20035;-79
2021/08/26 07:28:55;;;;;;;32.47;27.10;;;17.70;71.10;;;;;;5085998;28;20028;-79
2021/08/26 07:31:22;;;;;;;33.08;28.15;;;17.80;71.10;;;;;;5086014;28;20039;-78
2021/08/26 07:33:49;;;;;;;31.25;27.95;;;17.80;71.20;;;;;;5098706;28;20045;-78
2021/08/26 07:36:15;;;;;;;31.08;26.67;;;17.80;71.20;;;;;;5104567;28;20042;-78
2021/08/26 07:38:41;;;;;;;31.00;26.70;;;17.90;71.30;;;;;;5078178;28;20044;-78
2021/08/26 07:41:07;;;;;;;29.38;26.30;;;17.90;71.20;;;;;;5085493;28;20387;-77
2021/08/26 07:43:36;;;;;;;33.05;26.92;;;17.90;71.20;;;;;;5079722;28;20310;-78
2021/08/26 07:46:03;;;;;;;34.28;28.67;;;17.90;71.20;;;;;;5107595;28;20073;-78
2021/08/26 07:48:29;;;;;;;31.95;28.70;;;17.90;71.30;;;;;;5107174;28;20027;-79
2021/08/26 07:51:02;;;;;;;43.33;30.95;;;17.90;71.20;;;;;;5107523;28;20494;-80
2021/08/26 07:53:29;;;;;;;34.70;29.92;;;17.90;71.20;;;;;;5107783;28;20551;-81
2021/08/26 07:55:55;;;;;;;33.42;29.13;;;18.00;71.40;;;;;;5105283;28;20149;-81
2021/08/26 07:58:21;;;;;;;35.42;28.30;;;18.00;71.40;;;;;;5104814;28;20499;-86
2021/08/26 08:00:47;;;;;;;37.72;30.83;;;17.90;71.20;;;;;;5105421;28;20038;-82
2021/08/26 08:03:13;;;;;;;42.13;31.95;;;17.90;71.20;;;;;;5093476;28;20031;-81
2021/08/26 08:05:38;;;;;;;32.58;28.90;;;18.00;71.40;;;;;;5107131;28;20058;-79
2021/08/26 08:08:04;;;;;;;31.23;28.02;;;18.00;71.40;;;;;;5101307;28;20028;-81
2021/08/26 08:10:30;;;;;;;33.53;29.90;;;18.00;71.40;;;;;;5085744;28;20028;-79
2021/08/26 08:12:56;;;;;;;37.97;30.38;;;18.00;71.40;;;;;;5081317;28;20039;-81
2021/08/26 08:15:22;;;;;;;40.50;30.88;;;18.00;71.50;;;;;;5078503;28;20024;-81
2021/08/26 08:17:48;;;;;;;34.72;30.45;;;18.00;72.10;;;;;;5086062;28;20085;-83
2021/08/26 08:20:16;;;;;;;35.28;28.65;;;18.00;71.50;;;;;;5087356;28;20539;-88
2021/08/26 08:22:43;;;;;;;35.08;30.85;;;18.10;71.60;;;;;;5090166;28;20116;-84
2021/08/26 08:25:09;;;;;;;37.92;29.73;;;18.10;71.60;;;;;;5109113;28;20027;-88
2021/08/26 08:27:36;;;;;;;34.67;29.05;;;18.10;71.60;;;;;;5107887;28;20028;-85
2021/08/26 08:30:03;;;;;;;37.05;30.20;;;18.20;71.70;;;;;;5108032;28;20028;-84
2021/08/26 08:32:30;;;;;;;29.98;26.77;;;18.20;71.60;;;;;;5092469;28;20073;-84
2021/08/26 08:34:55;;;;;;;33.03;27.25;;;18.30;71.80;;;;;;5087822;28;20028;-83
2021/08/26 08:37:21;;;;;;;35.80;27.63;;;18.30;71.80;;;;;;5086780;28;20043;-80
2021/08/26 08:39:47;;;;;;;31.50;27.65;;;18.40;71.90;;;;;;5083016;28;20024;-82
2021/08/26 08:42:14;;;;;;;30.35;26.60;;;18.50;72.00;;;;;;5080960;28;20039;-83
2021/08/26 08:44:39;;;;;;;29.10;25.38;;;18.60;72.00;;;;;;5086365;28;20040;-83
2021/08/26 08:47:09;;;;;;;26.67;22.98;;;18.70;72.00;;;;;;5086217;28;20039;-82
2021/08/26 08:49:38;;;;;;;25.20;22.55;;;18.80;72.00;;;;;;5074176;28;20460;-80
2021/08/26 08:52:04;;;;;;;23.83;21.35;;;18.90;71.90;;;;;;5048365;28;20086;-81
2021/08/26 08:54:30;;;;;;;23.92;21.48;;;18.90;71.70;;;;;;5082675;28;20030;-84
2021/08/26 08:56:56;;;;;;;23.13;19.77;;;19.00;71.70;;;;;;5085695;28;20031;-81
2021/08/26 08:59:22;;;;;;;26.92;20.98;;;19.00;71.70;;;;;;5101232;28;20031;-82
2021/08/26 09:01:53;;;;;;;24.50;21.88;;;19.10;71.70;;;;;;5096137;28;20086;-85
2021/08/26 09:04:19;;;;;;;22.02;19.48;;;19.10;71.70;;;;;;5101172;28;20027;-82
2021/08/26 09:06:47;;;;;;;21.42;18.27;;;19.20;71.80;;;;;;5107407;28;20073;-84
2021/08/26 09:09:13;;;;;;;23.27;18.95;;;19.30;71.70;;;;;;5106273;28;20020;-86
2021/08/26 09:11:57;;;;;;;22.08;18.35;;;19.40;71.70;;;;;;5106988;28;20142;-83
2021/08/26 09:14:25;;;;;;;18.55;15.70;;;19.50;71.70;;;;;;5107387;28;20252;-88
2021/08/26 09:16:54;;;;;;;18.38;16.38;;;19.60;71.60;;;;;;5107921;28;20035;-82
2021/08/26 09:19:31;;;;;;;17.13;15.40;;;19.80;71.70;;;;;;5106566;28;20024;-83
2021/08/26 09:22:06;;;;;;;15.40;13.77;;;19.90;71.60;;;;;;5088285;28;20541;-86
2021/08/26 09:24:50;;;;;;;16.83;14.55;;;20.10;71.60;;;;;;5106871;28;20031;-82
2021/08/26 09:27:31;;;;;;;15.40;13.73;;;20.30;71.50;;;;;;5107852;28;20062;-82
2021/08/26 09:30:09;;;;;;;18.27;14.40;;;20.50;71.40;;;;;;5066216;28;20037;-84
2021/08/26 09:32:50;;;;;;;16.00;13.30;;;20.60;71.10;;;;;;5079437;28;20418;-83
2021/08/26 09:35:22;;;;;;;16.45;13.95;;;20.70;70.90;;;;;;5084843;28;20032;-83
2021/08/26 09:38:04;;;;;;;14.57;13.02;;;20.80;70.90;;;;;;5087196;28;20115;-83
2021/08/26 09:40:41;;;;;;;19.55;13.25;;;20.80;70.70;;;;;;5076136;28;20090;-82
2021/08/26 09:43:07;;;;;;;15.65;12.82;;;20.90;70.70;;;;;;5097701;27;20023;-83
2021/08/26 09:45:39;;;;;;;14.30;11.63;;;21.00;70.60;;;;;;5109180;28;20383;-83
2021/08/26 09:48:13;;;;;;;13.27;11.98;;;21.10;70.50;;;;;;5108951;28;20031;-84
2021/08/26 09:50:44;;;;;;;15.60;12.23;;;21.10;70.20;;;;;;5091138;28;20047;-83
2021/08/26 09:53:12;;;;;;;13.80;12.13;;;21.10;70.10;;;;;;5088338;28;20031;-84
2021/08/26 09:55:56;;;;;;;13.15;11.75;;;21.20;70.10;;;;;;5109842;28;20057;-82
2021/08/26 09:58:24;;;;;;;13.85;12.45;;;21.20;69.90;;;;;;5110162;28;20020;-82
2021/08/26 10:01:07;;;;;;;20.63;13.57;;;21.20;69.80;;;;;;5094312;28;20072;-80
2021/08/26 10:03:34;;;;;;;14.90;13.30;;;21.30;69.70;;;;;;5088187;28;20038;-85
2021/08/26 10:06:00;;;;;;;13.95;12.50;;;21.40;69.80;;;;;;5091501;28;20046;-82
2021/08/26 10:08:29;;;;;;;16.13;12.65;;;21.40;69.60;;;;;;5105615;28;20422;-82
2021/08/26 10:10:56;;;;;;;15.18;13.23;;;21.60;69.80;;;;;;5087696;28;20047;-79
2021/08/26 10:13:23;;;;;;;15.98;13.27;;;21.70;69.70;;;;;;5097414;28;20099;-82
2021/08/26 10:15:49;;;;;;;15.38;13.50;;;21.80;69.60;;;;;;5109624;28;20031;-83
2021/08/26 10:18:19;;;;;;;14.93;12.20;;;22.10;69.80;;;;;;5109776;28;20482;-81
2021/08/26 10:20:45;;;;;;;14.35;12.88;;;22.20;69.60;;;;;;5109409;28;20474;-83
2021/08/26 10:23:13;;;;;;;16.58;12.82;;;22.40;69.60;;;;;;5086386;28;20041;-80
2021/08/26 10:25:43;;;;;;;14.07;12.43;;;22.50;69.40;;;;;;5088181;28;20140;-82
2021/08/26 10:28:11;;;;;;;16.00;12.52;;;22.60;69.20;;;;;;5092826;28;20165;-83
2021/08/26 10:30:41;;;;;;;14.00;12.55;;;22.60;68.90;;;;;;5109099;28;20545;-82
2021/08/26 10:33:12;;;;;;;14.63;12.25;;;22.70;68.90;;;;;;5088183;28;20032;-82
2021/08/26 10:35:54;;;;;;;14.00;12.38;;;22.80;68.90;;;;;;5089121;28;20119;-82
2021/08/26 10:38:25;;;;;;;15.02;11.00;;;22.80;68.50;;;;;;5094237;28;20027;-81
2021/08/26 10:40:52;;;;;;;12.15;10.77;;;22.90;69.20;;;;;;5108746;28;20047;-82
2021/08/26 10:43:35;;;;;;;14.38;11.43;;;22.90;68.50;;;;;;5108615;28;20152;-82
2021/08/26 10:46:10;;;;;;;12.75;11.05;;;23.00;68.30;;;;;;5109291;28;20035;-84
2021/08/26 10:48:37;;;;;;;11.60;10.40;;;23.00;68.30;;;;;;5107948;28;20028;-84
2021/08/26 10:51:14;;;;;;;13.68;12.25;;;23.10;68.20;;;;;;5108526;28;20047;-83
2021/08/26 10:53:43;;;;;;;15.00;11.80;;;23.20;67.80;;;;;;5091847;28;20036;-82
2021/08/26 10:56:26;;;;;;;12.95;11.55;;;23.20;67.30;;;;;;5079404;28;20074;-80
2021/08/26 10:58:54;;;;;;;19.38;11.65;;;23.20;66.70;;;;;;5095776;28;20460;-83
2021/08/26 11:01:32;;;;;;;13.80;11.18;;;23.10;66.60;;;;;;5071008;28;20071;-88
2021/08/26 11:04:22;;;;;;;13.50;10.90;;;23.10;66.50;;;;;;5100786;28;20031;-81
2021/08/26 11:06:50;;;;;;;10.93;9.55;;;23.00;66.30;;;;;;5085110;28;20043;-82
2021/08/26 11:09:27;;;;;;;13.88;10.52;;;23.00;66.30;;;;;;5102500;28;20483;-84
2021/08/26 11:12:03;;;;;;;12.98;9.95;;;23.00;66.20;;;;;;5107468;28;20130;-81
2021/08/26 11:14:30;;;;;;;11.73;10.00;;;22.90;65.90;;;;;;5074625;28;20719;-82
2021/08/26 11:17:02;;;;;;;14.75;10.75;;;22.90;65.80;;;;;;5083248;28;20029;-81
2021/08/26 11:19:32;;;;;;;10.80;9.48;;;22.80;65.40;;;;;;5100327;28;20184;-79
2021/08/26 11:22:01;;;;;;;11.40;8.48;;;22.80;65.40;;;;;;5107337;28;20126;-81
2021/08/26 11:24:30;;;;;;;11.75;9.40;;;22.80;65.30;;;;;;5106927;28;20551;-80
2021/08/26 11:27:00;;;;;;;9.35;8.35;;;22.80;65.30;;;;;;5108059;28;20116;-79
2021/08/26 11:29:29;;;;;;;8.73;7.82;;;22.80;65.10;;;;;;5106710;28;20028;-80
2021/08/26 11:31:55;;;;;;;9.57;8.52;;;22.80;65.10;;;;;;5098629;28;20127;-81
2021/08/26 11:34:28;;;;;;;11.48;8.40;;;22.80;65.00;;;;;;5095450;28;20151;-78
2021/08/26 11:37:04;;;;;;;8.80;7.75;;;22.80;64.80;;;;;;5071468;28;20028;-81
2021/08/26 11:39:36;;;;;;;9.18;8.00;;;22.80;64.70;;;;;;5085275;28;20024;-81
2021/08/26 11:42:08;;;;;;;9.13;8.23;;;22.80;64.60;;;;;;5069251;28;20402;-81
2021/08/26 11:44:35;;;;;;;8.75;7.65;;;22.80;64.40;;;;;;5103844;28;20023;-83
2021/08/26 11:47:01;;;;;;;8.05;7.35;;;22.80;64.20;;;;;;5089491;28;20391;-83
2021/08/26 11:49:41;;;;;;;8.18;7.38;;;22.80;64.00;;;;;;5106125;28;20457;-82
2021/08/26 11:52:10;;;;;;;9.00;8.10;;;22.80;63.80;;;;;;5106471;28;20122;-84
2021/08/26 11:54:44;;;;;;;7.03;6.15;;;22.80;63.70;;;;;;5107011;28;20505;-83
2021/08/26 11:57:12;;;;;;;8.73;7.30;;;22.90;63.60;;;;;;5106399;28;20477;-83
2021/08/26 11:59:40;;;;;;;8.35;7.13;;;22.90;63.40;;;;;;5107170;27;20554;-82
2021/08/26 12:02:27;;;;;;;7.18;6.47;;;23.00;63.40;;;;;;5095022;27;20043;-82
2021/08/26 12:04:59;;;;;;;8.65;6.93;;;23.00;63.10;;;;;;5066608;28;20025;-82
2021/08/26 12:07:34;;;;;;;10.82;7.30;;;23.10;63.20;;;;;;5067107;28;20039;-81
2021/08/26 12:10:16;;;;;;;8.20;7.40;;;23.20;63.00;;;;;;5066286;28;20043;-80
2021/08/26 12:13:10;;;;;;;9.85;7.30;;;23.20;62.70;;;;;;5070181;28;20056;-79
2021/08/26 12:15:37;;;;;;;6.82;6.13;;;23.20;62.50;;;;;;5107274;28;20032;-79
2021/08/26 12:18:12;;;;;;;7.63;6.93;;;23.30;62.70;;;;;;5107435;28;20035;-81
2021/08/26 12:20:45;;;;;;;6.35;5.75;;;23.30;62.50;;;;;;5106665;28;20133;-81
2021/08/26 12:23:20;;;;;;;6.45;5.85;;;23.40;62.60;;;;;;5106899;28;20031;-83
2021/08/26 12:26:16;;;;;;;6.82;6.13;;;23.50;62.60;;;;;;5106878;28;20135;-81
2021/08/26 12:29:00;;;;;;;9.38;6.50;;;23.60;62.60;;;;;;5106738;28;20020;-83
2021/08/26 12:31:28;;;;;;;7.25;6.55;;;23.70;62.50;;;;;;5101219;28;20089;-82
2021/08/26 12:34:08;;;;;;;7.00;5.95;;;23.80;62.60;;;;;;5097866;28;20430;-81
2021/08/26 12:36:42;;;;;;;7.43;6.40;;;23.80;62.20;;;;;;5106316;28;20034;-82
2021/08/26 12:39:27;;;;;;;7.00;5.97;;;23.90;62.30;;;;;;5106248;28;20059;-82
2021/08/26 12:42:16;;;;;;;7.93;6.65;;;24.00;62.20;;;;;;5106119;28;20489;-83
2021/08/26 12:44:43;;;;;;;7.75;5.60;;;24.10;62.20;;;;;;5106171;28;20490;-81
2021/08/26 12:47:12;;;;;;;6.13;5.53;;;24.10;62.10;;;;;;5106786;28;20114;-81